Time;durP1;ratioP1;P1;durP2;ratioP2;P2;SDS_P1;SDS_P2;PMS_P1;PMS_P2;Temp;Humidity;BMP_temperature;BMP_pressure;BME280_temperature;BME280_humidity;BME280_pressure;Samples;Min_cycle;Max_cycle;Signal;HPM_P1;HPM_P2
2022/09/26 00:02:08;;;;;;;3.65;3.33;;;;;;;;;;4935934;29;20051;-63
2022/09/26 00:04:33;;;;;;;4.45;3.63;;;;;;;;;;4936221;29;20032;-63
2022/09/26 00:06:59;;;;;;;4.32;3.70;;;;;;;;;;4936452;29;20102;-63
2022/09/26 00:09:26;;;;;;;3.80;3.25;;;;;;;;;;4936063;29;20038;-63
2022/09/26 00:11:52;;;;;;;4.70;3.67;;;;;;;;;;4936364;29;20027;-63
2022/09/26 00:14:24;;;;;;;4.63;3.58;;;;;;;;;;4936256;29;20387;-63
2022/09/26 00:16:50;;;;;;;4.22;3.67;;;;;;;;;;4935998;29;20164;-63
2022/09/26 00:19:16;;;;;;;3.67;3.17;;;;;;;;;;4936100;29;20114;-62
2022/09/26 00:21:42;;;;;;;5.10;3.92;;;;;;;;;;4936042;29;20040;-63
2022/09/26 00:24:08;;;;;;;3.90;3.50;;;;;;;;;;4935837;29;20028;-63
2022/09/26 00:26:35;;;;;;;6.00;3.72;;;;;;;;;;4935751;29;20416;-63
2022/09/26 00:29:03;;;;;;;4.65;3.78;;;;;;;;;;4935913;29;20028;-63
2022/09/26 00:31:31;;;;;;;6.22;3.90;;;;;;;;;;4935963;29;20115;-63
2022/09/26 00:33:57;;;;;;;5.03;3.78;;;;;;;;;;4935829;29;20083;-63
2022/09/26 00:36:23;;;;;;;4.07;3.58;;;;;;;;;;4935894;29;20416;-63
2022/09/26 00:38:49;;;;;;;4.05;3.53;;;;;;;;;;4935815;29;20361;-63
2022/09/26 00:41:15;;;;;;;4.47;3.60;;;;;;;;;;4935438;29;20031;-63
2022/09/26 00:43:50;;;;;;;4.65;4.00;;;;;;;;;;4918469;29;20036;-63
2022/09/26 00:46:34;;;;;;;4.13;3.45;;;;;;;;;;4935642;29;20079;-63
2022/09/26 00:49:05;;;;;;;3.92;3.40;;;;;;;;;;4935389;29;20032;-63
2022/09/26 00:51:37;;;;;;;4.13;3.38;;;;;;;;;;4935625;29;20420;-63
2022/09/26 00:54:03;;;;;;;3.72;3.35;;;;;;;;;;4935431;29;20042;-63
2022/09/26 00:56:33;;;;;;;4.15;3.75;;;;;;;;;;4935604;29;20038;-63
2022/09/26 00:59:14;;;;;;;3.35;3.05;;;;;;;;;;4917865;29;20060;-62
2022/09/26 01:01:40;;;;;;;4.15;3.50;;;;;;;;;;4935063;29;20099;-62
2022/09/26 01:04:06;;;;;;;4.78;3.70;;;;;;;;;;4935539;29;20032;-63
2022/09/26 01:06:32;;;;;;;3.60;3.30;;;;;;;;;;4935615;29;20067;-63
2022/09/26 01:09:00;;;;;;;4.32;3.35;;;;;;;;;;4935476;29;20051;-62
2022/09/26 01:11:26;;;;;;;5.20;3.75;;;;;;;;;;4935501;29;20027;-63
2022/09/26 01:13:53;;;;;;;4.25;3.30;;;;;;;;;;4935201;29;20075;-62
2022/09/26 01:16:18;;;;;;;4.35;3.60;;;;;;;;;;4935114;29;20480;-63
2022/09/26 01:18:45;;;;;;;4.07;3.60;;;;;;;;;;4935145;29;20042;-62
2022/09/26 01:21:55;;;;;;;4.53;3.65;;;;;;;;;;4935397;29;20027;-63
2022/09/26 01:24:35;;;;;;;4.57;3.85;;;;;;;;;;4899212;29;20126;-63
2022/09/26 01:27:21;;;;;;;4.40;3.38;;;;;;;;;;4935172;29;20036;-62
2022/09/26 01:30:21;;;;;;;3.95;3.63;;;;;;;;;;4935036;29;20039;-62
2022/09/26 01:32:52;;;;;;;3.67;3.38;;;;;;;;;;4923478;29;20047;-63
2022/09/26 01:35:36;;;;;;;4.35;3.70;;;;;;;;;;4935285;29;20036;-63
2022/09/26 01:38:14;;;;;;;4.35;3.60;;;;;;;;;;4935057;29;20035;-63
2022/09/26 01:40:49;;;;;;;3.95;3.33;;;;;;;;;;4935008;29;20031;-63
2022/09/26 01:43:28;;;;;;;3.72;3.33;;;;;;;;;;4935312;29;20046;-63
2022/09/26 01:46:04;;;;;;;3.50;3.20;;;;;;;;;;4934982;29;20028;-63
2022/09/26 01:48:35;;;;;;;5.53;3.65;;;;;;;;;;4935229;29;20039;-63
2022/09/26 01:51:14;;;;;;;3.55;3.25;;;;;;;;;;4935180;29;20023;-63
2022/09/26 01:53:58;;;;;;;4.10;3.70;;;;;;;;;;4935209;29;20074;-63
2022/09/26 01:56:27;;;;;;;3.80;3.40;;;;;;;;;;4935058;29;20036;-63
2022/09/26 01:59:08;;;;;;;4.05;3.58;;;;;;;;;;4934773;29;20050;-63
2022/09/26 02:01:41;;;;;;;3.90;3.50;;;;;;;;;;4934634;29;20051;-63
2022/09/26 02:04:11;;;;;;;3.72;3.15;;;;;;;;;;4934735;29;20032;-63
2022/09/26 02:06:42;;;;;;;3.58;3.22;;;;;;;;;;4934970;29;20036;-63
2022/09/26 02:09:23;;;;;;;5.18;3.40;;;;;;;;;;4934984;29;20039;-63
2022/09/26 02:11:51;;;;;;;5.00;3.70;;;;;;;;;;4936730;29;20028;-63
2022/09/26 02:14:24;;;;;;;4.32;3.72;;;;;;;;;;4938095;29;20039;-63
2022/09/26 02:16:54;;;;;;;4.05;3.33;;;;;;;;;;4938273;29;20047;-63
2022/09/26 02:19:25;;;;;;;3.65;3.35;;;;;;;;;;4938237;29;20036;-63
2022/09/26 02:21:51;;;;;;;4.05;3.47;;;;;;;;;;4938220;29;20444;-62
2022/09/26 02:24:17;;;;;;;3.97;3.55;;;;;;;;;;4938185;29;20425;-63
2022/09/26 02:26:42;;;;;;;3.70;3.40;;;;;;;;;;4938117;29;20035;-63
2022/09/26 02:29:10;;;;;;;3.78;3.28;;;;;;;;;;4938138;29;20476;-63
2022/09/26 02:31:43;;;;;;;3.70;3.40;;;;;;;;;;4938133;29;20028;-63
2022/09/26 02:34:09;;;;;;;4.40;3.60;;;;;;;;;;4938097;29;20023;-62
2022/09/26 02:36:35;;;;;;;3.80;3.40;;;;;;;;;;4938029;29;20035;-63
2022/09/26 02:39:01;;;;;;;3.85;3.30;;;;;;;;;;4937667;29;20024;-63
2022/09/26 02:41:57;;;;;;;3.50;3.20;;;;;;;;;;4937722;29;20036;-63
2022/09/26 02:44:56;;;;;;;3.95;3.55;;;;;;;;;;4937949;29;20380;-63
2022/09/26 02:47:44;;;;;;;3.78;3.30;;;;;;;;;;4937840;29;20421;-63
2022/09/26 02:50:24;;;;;;;2.97;2.78;;;;;;;;;;4937606;29;20435;-63
2022/09/26 02:53:11;;;;;;;3.53;3.10;;;;;;;;;;4937781;29;20120;-63
2022/09/26 02:56:02;;;;;;;3.92;3.53;;;;;;;;;;4937485;29;20054;-63
2022/09/26 02:58:41;;;;;;;3.70;3.35;;;;;;;;;;4937589;29;20024;-63
2022/09/26 03:01:20;;;;;;;3.80;3.47;;;;;;;;;;4937153;29;20051;-63
2022/09/26 03:03:56;;;;;;;3.67;3.33;;;;;;;;;;4937624;29;20032;-63
2022/09/26 03:06:28;;;;;;;3.97;3.40;;;;;;;;;;4937308;29;20103;-63
2022/09/26 03:08:55;;;;;;;3.80;3.38;;;;;;;;;;4937260;29;20086;-63
2022/09/26 03:11:24;;;;;;;3.83;3.28;;;;;;;;;;4937427;29;20036;-63
2022/09/26 03:13:53;;;;;;;4.05;3.45;;;;;;;;;;4937130;29;20028;-63
2022/09/26 03:16:20;;;;;;;4.22;3.30;;;;;;;;;;4937338;29;20379;-63
2022/09/26 03:18:53;;;;;;;4.15;3.65;;;;;;;;;;4936861;29;20055;-63
2022/09/26 03:21:19;;;;;;;4.18;3.70;;;;;;;;;;4937469;29;20030;-62
2022/09/26 03:23:45;;;;;;;3.85;3.47;;;;;;;;;;4936492;29;20023;-63
2022/09/26 03:26:15;;;;;;;3.50;3.20;;;;;;;;;;4936905;29;20451;-63
2022/09/26 03:28:40;;;;;;;3.58;3.25;;;;;;;;;;4937159;29;20027;-63
2022/09/26 03:31:06;;;;;;;3.90;3.22;;;;;;;;;;4936851;29;20436;-63
2022/09/26 03:33:33;;;;;;;3.38;3.00;;;;;;;;;;4936797;29;20472;-64
2022/09/26 03:35:59;;;;;;;3.58;3.25;;;;;;;;;;4936675;29;20031;-63
2022/09/26 03:38:25;;;;;;;3.85;3.50;;;;;;;;;;4936819;29;20388;-63
2022/09/26 03:40:52;;;;;;;3.95;3.28;;;;;;;;;;4936791;29;20424;-63
2022/09/26 03:43:17;;;;;;;4.00;3.40;;;;;;;;;;4936795;29;20035;-63
2022/09/26 03:45:42;;;;;;;3.80;3.50;;;;;;;;;;4936797;29;20062;-63
2022/09/26 03:48:08;;;;;;;4.30;3.47;;;;;;;;;;4936674;29;20091;-63
2022/09/26 03:50:33;;;;;;;3.60;3.30;;;;;;;;;;4936500;29;20468;-63
2022/09/26 03:53:02;;;;;;;3.92;3.53;;;;;;;;;;4936668;29;20031;-63
2022/09/26 03:55:28;;;;;;;3.92;3.53;;;;;;;;;;4936260;29;20467;-63
2022/09/26 03:57:53;;;;;;;4.55;3.45;;;;;;;;;;4936607;29;20043;-63
2022/09/26 04:00:19;;;;;;;3.60;3.30;;;;;;;;;;4936278;29;20028;-63
2022/09/26 04:02:44;;;;;;;3.72;3.10;;;;;;;;;;4936082;29;20072;-63
2022/09/26 04:05:10;;;;;;;3.55;3.20;;;;;;;;;;4936095;29;20038;-63
2022/09/26 04:07:35;;;;;;;3.60;3.17;;;;;;;;;;4935989;29;20035;-63
2022/09/26 04:10:01;;;;;;;3.30;3.00;;;;;;;;;;4936297;29;20079;-63
2022/09/26 04:12:26;;;;;;;3.42;3.13;;;;;;;;;;4936194;29;20487;-63
2022/09/26 04:14:53;;;;;;;3.60;3.30;;;;;;;;;;4935886;29;20032;-64
2022/09/26 04:17:18;;;;;;;3.40;3.10;;;;;;;;;;4935878;29;20028;-63
2022/09/26 04:19:44;;;;;;;4.15;3.70;;;;;;;;;;4936045;29;20034;-63
2022/09/26 04:22:09;;;;;;;3.88;3.20;;;;;;;;;;4936030;29;20050;-63
2022/09/26 04:24:35;;;;;;;3.20;2.90;;;;;;;;;;4935823;29;20043;-63
2022/09/26 04:27:01;;;;;;;3.97;3.45;;;;;;;;;;4936035;29;20079;-64
2022/09/26 04:29:27;;;;;;;3.97;3.42;;;;;;;;;;4935930;29;20353;-63
2022/09/26 04:31:53;;;;;;;3.70;3.17;;;;;;;;;;4935740;29;20035;-63
2022/09/26 04:34:23;;;;;;;3.28;2.97;;;;;;;;;;4934736;29;20525;-63
2022/09/26 04:36:50;;;;;;;3.60;3.30;;;;;;;;;;4935623;29;20079;-63
2022/09/26 04:39:15;;;;;;;3.35;3.05;;;;;;;;;;4935404;29;20044;-63
2022/09/26 04:41:41;;;;;;;3.30;3.00;;;;;;;;;;4935396;29;20038;-63
2022/09/26 04:44:09;;;;;;;4.13;3.45;;;;;;;;;;4935694;29;20031;-63
2022/09/26 04:46:34;;;;;;;3.42;3.13;;;;;;;;;;4935392;29;20487;-63
2022/09/26 04:49:00;;;;;;;3.38;3.08;;;;;;;;;;4935687;29;20032;-63
2022/09/26 04:51:31;;;;;;;4.00;3.40;;;;;;;;;;4935645;29;20024;-63
2022/09/26 04:53:57;;;;;;;3.85;3.17;;;;;;;;;;4935438;29;20471;-63
2022/09/26 04:56:25;;;;;;;2.92;2.72;;;;;;;;;;4935521;29;20372;-63
2022/09/26 04:58:53;;;;;;;3.70;3.40;;;;;;;;;;4935200;29;20106;-63
2022/09/26 05:01:19;;;;;;;3.58;3.28;;;;;;;;;;4935085;29;20052;-63
2022/09/26 05:03:45;;;;;;;3.55;3.25;;;;;;;;;;4935249;29;20091;-63
2022/09/26 05:06:12;;;;;;;3.38;3.08;;;;;;;;;;4935520;29;20028;-62
2022/09/26 05:08:40;;;;;;;3.35;3.08;;;;;;;;;;4935421;29;20039;-63
2022/09/26 05:11:06;;;;;;;4.05;3.40;;;;;;;;;;4935031;29;20635;-63
2022/09/26 05:13:32;;;;;;;3.63;3.22;;;;;;;;;;4935044;29;20087;-63
2022/09/26 05:16:01;;;;;;;3.40;3.10;;;;;;;;;;4935259;29;20028;-63
2022/09/26 05:18:28;;;;;;;3.60;3.30;;;;;;;;;;4935193;29;20046;-63
2022/09/26 05:20:54;;;;;;;3.78;3.13;;;;;;;;;;4935379;29;20660;-63
2022/09/26 05:26:43;;;;;;;3.42;3.10;;;;;;;;;;4935461;29;20456;-63
2022/09/26 05:29:10;;;;;;;3.85;3.30;;;;;;;;;;4934044;29;20039;-63
2022/09/26 05:31:37;;;;;;;3.42;3.13;;;;;;;;;;4917905;29;20535;-63
2022/09/26 05:34:07;;;;;;;3.30;3.00;;;;;;;;;;4935248;29;20070;-63
2022/09/26 05:36:33;;;;;;;3.20;2.90;;;;;;;;;;4935004;29;20510;-63
2022/09/26 05:38:59;;;;;;;3.63;3.30;;;;;;;;;;4935105;29;20059;-63
2022/09/26 05:41:32;;;;;;;3.78;3.33;;;;;;;;;;4935135;29;20028;-63
2022/09/26 05:43:58;;;;;;;3.67;3.28;;;;;;;;;;4934951;29;20020;-63
2022/09/26 05:46:26;;;;;;;3.70;3.17;;;;;;;;;;4936654;29;20031;-63
2022/09/26 05:48:52;;;;;;;3.65;3.15;;;;;;;;;;4938888;29;20036;-63
2022/09/26 05:51:19;;;;;;;3.60;3.30;;;;;;;;;;4938499;29;20028;-63
2022/09/26 05:53:46;;;;;;;3.47;3.13;;;;;;;;;;4921640;29;20067;-63
2022/09/26 05:56:13;;;;;;;3.40;3.10;;;;;;;;;;4938790;29;20024;-63
2022/09/26 05:58:40;;;;;;;4.03;3.20;;;;;;;;;;4938594;29;20024;-63
2022/09/26 06:01:07;;;;;;;3.53;3.22;;;;;;;;;;4938127;29;20054;-63
2022/09/26 06:03:34;;;;;;;3.65;3.08;;;;;;;;;;4938508;29;20115;-63
2022/09/26 06:06:05;;;;;;;4.25;3.30;;;;;;;;;;4938525;29;20369;-63
2022/09/26 06:08:31;;;;;;;3.67;3.28;;;;;;;;;;4938155;29;20114;-63
2022/09/26 06:11:05;;;;;;;4.22;3.40;;;;;;;;;;4938409;29;20098;-63
2022/09/26 06:13:31;;;;;;;4.13;3.10;;;;;;;;;;4938444;29;20055;-62
2022/09/26 06:16:04;;;;;;;3.50;3.20;;;;;;;;;;4938085;29;20020;-63
2022/09/26 06:18:31;;;;;;;3.22;3.00;;;;;;;;;;4937978;29;20034;-63
2022/09/26 06:21:01;;;;;;;3.42;3.13;;;;;;;;;;4938293;29;20034;-63
2022/09/26 06:23:26;;;;;;;3.42;3.00;;;;;;;;;;4938171;29;20464;-63
2022/09/26 06:25:51;;;;;;;5.13;3.38;;;;;;;;;;4938237;29;20100;-63
2022/09/26 06:28:17;;;;;;;3.90;3.50;;;;;;;;;;4938120;29;20439;-62
2022/09/26 06:30:43;;;;;;;4.00;3.20;;;;;;;;;;4937866;29;20115;-63
2022/09/26 06:33:08;;;;;;;3.97;3.20;;;;;;;;;;4937805;29;20114;-63
2022/09/26 06:35:34;;;;;;;3.85;3.30;;;;;;;;;;4937705;29;20028;-63
2022/09/26 06:37:59;;;;;;;5.18;3.58;;;;;;;;;;4937866;29;20027;-63
2022/09/26 06:40:25;;;;;;;4.40;3.47;;;;;;;;;;4937792;29;20063;-63
2022/09/26 06:42:51;;;;;;;4.18;3.70;;;;;;;;;;4937670;29;20032;-63
2022/09/26 06:45:16;;;;;;;3.55;3.25;;;;;;;;;;4936146;29;20353;-63
2022/09/26 06:47:42;;;;;;;4.63;3.08;;;;;;;;;;4936645;29;20079;-63
2022/09/26 06:50:08;;;;;;;4.13;3.72;;;;;;;;;;4920480;29;20059;-63
2022/09/26 06:52:34;;;;;;;3.50;3.20;;;;;;;;;;4937276;29;20054;-63
2022/09/26 06:55:01;;;;;;;3.50;3.00;;;;;;;;;;4937141;29;20032;-63
2022/09/26 06:57:28;;;;;;;3.80;3.50;;;;;;;;;;4936345;29;20083;-62
2022/09/26 06:59:54;;;;;;;3.67;3.20;;;;;;;;;;4937172;29;20042;-63
2022/09/26 07:02:20;;;;;;;3.40;3.15;;;;;;;;;;4936782;29;20126;-63
2022/09/26 07:04:45;;;;;;;3.92;3.50;;;;;;;;;;4937469;29;20032;-62
2022/09/26 07:07:11;;;;;;;3.80;3.25;;;;;;;;;;4937193;29;20464;-63
2022/09/26 07:09:36;;;;;;;4.55;3.53;;;;;;;;;;4937329;29;20028;-63
2022/09/26 07:12:02;;;;;;;3.78;3.30;;;;;;;;;;4937392;29;20027;-63
2022/09/26 07:14:27;;;;;;;4.05;3.42;;;;;;;;;;4936997;29;20031;-63
2022/09/26 07:16:53;;;;;;;4.30;3.40;;;;;;;;;;4937297;29;20032;-63
2022/09/26 07:19:18;;;;;;;3.92;3.40;;;;;;;;;;4936926;29;20040;-65
2022/09/26 07:21:45;;;;;;;4.07;3.63;;;;;;;;;;4936878;29;20416;-64
2022/09/26 07:24:13;;;;;;;5.38;3.80;;;;;;;;;;4936904;29;20070;-64
2022/09/26 07:26:40;;;;;;;3.75;3.30;;;;;;;;;;4937050;29;20032;-64
2022/09/26 07:29:06;;;;;;;3.58;3.20;;;;;;;;;;4936640;29;20028;-64
2022/09/26 07:31:32;;;;;;;3.95;3.33;;;;;;;;;;4936907;29;20030;-64
2022/09/26 07:33:57;;;;;;;4.95;3.38;;;;;;;;;;4939800;29;20019;-64
2022/09/26 07:36:23;;;;;;;3.80;3.50;;;;;;;;;;4940792;29;20071;-64
2022/09/26 07:38:49;;;;;;;3.70;3.35;;;;;;;;;;4939358;29;20035;-64
2022/09/26 07:41:16;;;;;;;4.97;3.30;;;;;;;;;;4942110;29;20042;-63
2022/09/26 07:43:42;;;;;;;3.83;3.38;;;;;;;;;;4941831;29;20534;-64
2022/09/26 07:51:37;;;;;;;3.97;3.28;;;;;;;;;;4932584;29;20043;-63
2022/09/26 07:54:03;;;;;;;3.85;3.50;;;;;;;;;;4943731;29;20440;-63
2022/09/26 07:56:33;;;;;;;4.97;3.67;;;;;;;;;;4939339;29;20027;-63
2022/09/26 07:59:02;;;;;;;3.60;3.28;;;;;;;;;;4944878;29;20031;-63
2022/09/26 08:01:28;;;;;;;4.07;3.33;;;;;;;;;;4943544;29;20044;-63
2022/09/26 08:03:56;;;;;;;4.65;3.28;;;;;;;;;;4944795;29;20250;-69
2022/09/26 08:06:22;;;;;;;4.30;3.45;;;;;;;;;;4943764;29;20023;-63
2022/09/26 08:08:52;;;;;;;4.32;3.60;;;;;;;;;;4943035;28;20066;-64
2022/09/26 08:11:19;;;;;;;4.17;3.77;;;;;;;;;;4944414;29;20034;-63
2022/09/26 08:13:45;;;;;;;3.53;3.22;;;;;;;;;;4941491;29;20031;-63
2022/09/26 08:16:14;;;;;;;5.18;3.38;;;;;;;;;;4944745;29;20056;-63
2022/09/26 08:18:39;;;;;;;4.00;3.60;;;;;;;;;;4944012;29;20035;-64
2022/09/26 08:21:05;;;;;;;3.78;3.25;;;;;;;;;;4945481;29;20028;-63
2022/09/26 08:23:32;;;;;;;5.15;3.67;;;;;;;;;;4942604;29;20027;-63
2022/09/26 08:25:58;;;;;;;3.80;3.40;;;;;;;;;;4943268;29;20026;-63
2022/09/26 08:28:26;;;;;;;3.90;3.50;;;;;;;;;;4944850;29;20027;-63
2022/09/26 08:30:51;;;;;;;4.13;3.58;;;;;;;;;;4943050;29;20050;-63
2022/09/26 08:33:17;;;;;;;3.50;2.97;;;;;;;;;;4943943;29;20024;-62
2022/09/26 08:35:44;;;;;;;4.03;3.63;;;;;;;;;;4944493;29;20111;-62
2022/09/26 08:38:09;;;;;;;4.10;3.42;;;;;;;;;;4944040;29;20051;-63
2022/09/26 08:41:02;;;;;;;4.63;3.75;;;;;;;;;;4943582;29;20032;-62
2022/09/26 08:43:47;;;;;;;4.45;3.17;;;;;;;;;;4944723;29;20408;-63
2022/09/26 08:46:59;;;;;;;4.05;3.65;;;;;;;;;;4939229;29;20055;-63
2022/09/26 08:49:41;;;;;;;5.45;3.65;;;;;;;;;;4890971;29;20128;-64
2022/09/26 08:52:27;;;;;;;3.53;3.20;;;;;;;;;;4939529;29;20058;-64
2022/09/26 08:54:56;;;;;;;3.67;3.38;;;;;;;;;;4939160;29;20032;-64
2022/09/26 08:57:41;;;;;;;3.50;3.20;;;;;;;;;;4944076;29;20024;-66
2022/09/26 09:00:19;;;;;;;4.68;3.40;;;;;;;;;;4942141;29;20074;-65
2022/09/26 09:03:19;;;;;;;3.45;3.15;;;;;;;;;;4940365;29;20102;-68
2022/09/26 09:05:50;;;;;;;3.95;3.38;;;;;;;;;;4939374;29;20570;-69
2022/09/26 09:08:23;;;;;;;6.00;3.50;;;;;;;;;;4942017;29;20059;-70
2022/09/26 09:10:56;;;;;;;3.72;3.40;;;;;;;;;;4942382;29;20487;-61
2022/09/26 09:13:27;;;;;;;3.58;3.17;;;;;;;;;;4945919;29;20075;-66
2022/09/26 09:16:15;;;;;;;3.55;3.25;;;;;;;;;;4954113;29;20033;-66
2022/09/26 09:18:50;;;;;;;4.20;3.22;;;;;;;;;;4953352;29;20147;-66
2022/09/26 09:21:34;;;;;;;4.13;3.50;;;;;;;;;;4936972;29;20051;-69
2022/09/26 09:24:27;;;;;;;3.53;3.22;;;;;;;;;;4940093;29;20039;-69
2022/09/26 09:27:17;;;;;;;4.45;3.80;;;;;;;;;;4946983;29;20039;-68
2022/09/26 09:29:48;;;;;;;5.22;3.63;;;;;;;;;;4944516;29;20387;-68
2022/09/26 09:37:52;;;;;;;5.40;3.72;;;;;;;;;;5066990;28;20403;-67
2022/09/26 09:40:32;;;;;;;6.47;4.10;;;;;;;;;;5046819;28;20072;-64
2022/09/26 09:43:06;;;;;;;;;;;;;;;;;;5055395;28;20056;-65
2022/09/26 09:45:46;;;;;;;5.72;4.07;;;;;;;;;;5066997;28;19928;-66
2022/09/26 09:48:13;;;;;;;4.15;3.75;;;;;;;;;;5067037;28;20110;-66
2022/09/26 09:50:41;;;;;;;4.88;4.00;;;;;;;;;;5066818;28;20488;-65
2022/09/26 09:53:23;;;;;;;7.40;4.20;;;;;;;;;;5066863;28;20078;-65
2022/09/26 09:56:03;;;;;;;5.45;4.22;;;;;;;;;;5066754;28;20155;-71
2022/09/26 09:58:44;;;;;;;5.38;4.10;;;;;;;;;;5066903;28;20477;-69
2022/09/26 10:01:34;;;;;;;4.30;3.90;;;;;;;;;;5061294;28;20033;-62
2022/09/26 10:04:39;;;;;;;4.68;4.00;;;;;;;;;;5046824;28;20036;-71
2022/09/26 10:07:05;;;;;;;4.95;4.00;;;;;;;;;;5046640;28;20037;-69
2022/09/26 10:09:45;;;;;;;5.00;3.92;;;;;;;;;;5047050;28;20031;-62
2022/09/26 10:12:17;;;;;;;4.72;4.10;;;;;;;;;;5046542;28;20439;-71
2022/09/26 10:14:53;;;;;;;4.55;4.10;;;;;;;;;;5051826;28;20029;-65
2022/09/26 10:17:21;;;;;;;4.80;3.83;;;;;;;;;;5046469;28;20052;-72
2022/09/26 10:19:47;;;;;;;4.38;3.95;;;;;;;;;;5047786;28;20033;-69
2022/09/26 10:22:24;;;;;;;4.95;4.00;;;;;;;;;;5046579;28;20120;-70
2022/09/26 10:24:53;;;;;;;4.90;4.10;;;;;;;;;;5059514;28;20041;-70
2022/09/26 10:27:38;;;;;;;6.13;4.45;;;;;;;;;;5066096;28;20094;-62
2022/09/26 10:30:25;;;;;;;6.00;4.18;;;;;;;;;;5066408;28;20368;-68
2022/09/26 10:32:54;;;;;;;4.20;3.80;;;;;;;;;;5066152;28;20115;-66
2022/09/26 10:35:23;;;;;;;5.57;4.00;;;;;;;;;;5066279;28;20025;-62
2022/09/26 10:38:01;;;;;;;4.57;4.10;;;;;;;;;;5066164;28;20412;-62
2022/09/26 10:40:44;;;;;;;5.70;4.10;;;;;;;;;;5066359;28;20373;-62
2022/09/26 10:43:27;;;;;;;4.20;3.80;;;;;;;;;;5066115;28;20131;-63
2022/09/26 10:46:01;;;;;;;4.93;3.80;;;;;;;;;;5066258;28;20056;-61
2022/09/26 10:48:45;;;;;;;4.95;3.88;;;;;;;;;;5047714;28;20381;-62
2022/09/26 10:51:22;;;;;;;4.75;4.03;;;;;;;;;;5032718;28;20088;-65
2022/09/26 10:53:52;;;;;;;6.78;4.20;;;;;;;;;;5032941;28;20572;-62
2022/09/26 10:56:25;;;;;;;5.93;4.03;;;;;;;;;;5031511;28;20453;-66
2022/09/26 10:58:56;;;;;;;7.95;4.10;;;;;;;;;;5032739;28;20029;-66
2022/09/26 11:01:26;;;;;;;4.40;3.90;;;;;;;;;;5032515;28;20075;-63
2022/09/26 11:03:54;;;;;;;4.32;3.92;;;;;;;;;;5046723;28;20389;-61
2022/09/26 11:06:25;;;;;;;4.38;3.97;;;;;;;;;;5032932;28;20155;-72
2022/09/26 11:08:56;;;;;;;4.53;3.70;;;;;;;;;;5036310;28;20066;-66
2022/09/26 11:11:22;;;;;;;4.30;3.90;;;;;;;;;;5051977;28;20492;-64
2022/09/26 11:14:07;;;;;;;4.85;3.80;;;;;;;;;;5030455;28;20037;-65
2022/09/26 11:16:47;;;;;;;4.43;3.72;;;;;;;;;;5035840;28;20081;-63
2022/09/26 11:19:41;;;;;;;7.18;4.10;;;;;;;;;;5013376;28;20029;-65
2022/09/26 11:22:18;;;;;;;8.77;3.85;;;;;;;;;;5029405;28;20083;-64
2022/09/26 11:24:53;;;;;;;4.25;3.85;;;;;;;;;;5051253;28;20040;-66
2022/09/26 11:27:42;;;;;;;4.55;4.03;;;;;;;;;;5051168;28;20501;-64
2022/09/26 11:30:26;;;;;;;4.45;3.60;;;;;;;;;;5051260;28;20032;-63
2022/09/26 11:32:55;;;;;;;6.28;3.70;;;;;;;;;;5051196;28;20376;-62
2022/09/26 11:35:58;;;;;;;4.53;3.60;;;;;;;;;;5050853;28;20025;-65
2022/09/26 11:38:37;;;;;;;3.90;3.60;;;;;;;;;;5022073;28;20080;-66
2022/09/26 11:41:15;;;;;;;6.25;4.00;;;;;;;;;;5031806;28;20037;-71
2022/09/26 11:43:56;;;;;;;4.07;3.50;;;;;;;;;;5032565;28;20067;-64
2022/09/26 11:46:21;;;;;;;3.80;3.50;;;;;;;;;;5032610;28;20037;-65
2022/09/26 11:49:17;;;;;;;5.55;3.88;;;;;;;;;;5027781;28;20374;-64
2022/09/26 11:52:11;;;;;;;3.88;3.58;;;;;;;;;;5030461;28;20397;-67
2022/09/26 11:54:56;;;;;;;3.92;3.53;;;;;;;;;;5031548;28;20025;-68
2022/09/26 11:57:36;;;;;;;4.28;3.88;;;;;;;;;;5029846;28;20044;-64
2022/09/26 12:00:27;;;;;;;4.20;3.80;;;;;;;;;;5029046;28;20041;-64
2022/09/26 12:03:12;;;;;;;5.88;3.60;;;;;;;;;;5030025;28;20033;-63
2022/09/26 12:06:00;;;;;;;3.60;3.30;;;;;;;;;;5029303;28;20026;-69
2022/09/26 12:08:48;;;;;;;4.45;3.47;;;;;;;;;;5029813;28;20029;-68
2022/09/26 12:11:33;;;;;;;6.22;3.40;;;;;;;;;;5031834;28;20036;-65
2022/09/26 12:14:28;;;;;;;4.50;3.78;;;;;;;;;;5031387;28;20057;-72
2022/09/26 12:17:02;;;;;;;4.43;3.47;;;;;;;;;;5012083;28;20128;-66
2022/09/26 12:19:39;;;;;;;4.40;3.80;;;;;;;;;;5012244;28;20137;-69
2022/09/26 12:22:28;;;;;;;5.90;3.92;;;;;;;;;;5012041;28;20124;-66
2022/09/26 12:25:08;;;;;;;3.75;3.45;;;;;;;;;;5012004;28;20026;-70
2022/09/26 12:27:47;;;;;;;4.32;3.92;;;;;;;;;;5012038;28;20075;-65
2022/09/26 12:30:16;;;;;;;4.97;3.85;;;;;;;;;;5012302;28;20038;-69
2022/09/26 12:33:06;;;;;;;6.95;3.70;;;;;;;;;;5011890;28;20091;-66
2022/09/26 12:35:38;;;;;;;7.03;3.70;;;;;;;;;;5012119;28;20102;-68
2022/09/26 12:38:23;;;;;;;5.28;3.70;;;;;;;;;;5027826;28;20394;-64
2022/09/26 12:40:57;;;;;;;4.00;3.53;;;;;;;;;;5031846;28;20047;-67
2022/09/26 12:44:07;;;;;;;4.60;3.35;;;;;;;;;;5031535;28;20037;-68
2022/09/26 12:46:33;;;;;;;;;;;;;;;;;;5032488;28;20116;-64
2022/09/26 12:49:10;;;;;;;3.70;3.38;;;;;;;;;;5031531;28;20312;-70
2022/09/26 12:51:43;;;;;;;6.22;3.65;;;;;;;;;;5029764;28;20381;-64
2022/09/26 12:54:39;;;;;;;3.85;3.42;;;;;;;;;;5021248;28;20393;-68
2022/09/26 12:57:47;;;;;;;4.40;3.47;;;;;;;;;;5017557;28;20492;-66
2022/09/26 13:00:19;;;;;;;5.38;3.75;;;;;;;;;;5009237;28;20073;-62
2022/09/26 13:02:45;;;;;;;4.93;3.28;;;;;;;;;;5011753;28;20480;-67
2022/09/26 13:05:14;;;;;;;4.22;3.35;;;;;;;;;;5042893;28;20125;-74
2022/09/26 13:07:46;;;;;;;5.27;3.63;;;;;;;;;;5011395;28;20069;-65
2022/09/26 13:10:40;;;;;;;3.58;3.20;;;;;;;;;;5011313;28;20030;-66
2022/09/26 13:13:44;;;;;;;4.55;3.53;;;;;;;;;;5011578;28;20030;-73
2022/09/26 13:16:47;;;;;;;3.90;3.42;;;;;;;;;;5011359;28;20034;-68
2022/09/26 13:19:33;;;;;;;4.53;3.90;;;;;;;;;;5011103;28;20022;-71
2022/09/26 13:22:35;;;;;;;7.50;3.67;;;;;;;;;;5016533;28;20036;-69
2022/09/26 13:25:16;;;;;;;3.72;3.40;;;;;;;;;;5027940;28;20099;-67
2022/09/26 13:27:53;;;;;;;4.00;3.58;;;;;;;;;;5032465;28;20366;-67
2022/09/26 13:30:34;;;;;;;3.45;3.15;;;;;;;;;;5035468;28;20021;-66
2022/09/26 13:33:20;;;;;;;4.32;3.17;;;;;;;;;;5029413;28;20038;-65
2022/09/26 13:35:50;;;;;;;4.25;3.60;;;;;;;;;;5030553;28;20022;-65
2022/09/26 13:38:31;;;;;;;;;;;;;;;;;;5031246;28;20137;-65
2022/09/26 13:41:11;;;;;;;3.95;3.40;;;;;;;;;;5029071;28;19959;-67
2022/09/26 13:44:03;;;;;;;3.90;3.20;;;;;;;;;;5028922;28;20041;-67
2022/09/26 13:47:11;;;;;;;4.15;3.75;;;;;;;;;;5048070;28;20029;-66
2022/09/26 13:49:55;;;;;;;3.90;3.45;;;;;;;;;;5016178;28;20026;-66
2022/09/26 13:52:33;;;;;;;3.33;3.03;;;;;;;;;;5027434;28;20041;-65
2022/09/26 13:55:03;;;;;;;5.97;3.30;;;;;;;;;;5030473;28;20025;-65
2022/09/26 13:57:30;;;;;;;;;;;;;;;;;;5031142;28;20041;-66
2022/09/26 13:59:57;;;;;;;6.78;4.60;;;;;;;;;;5030425;28;19919;-66
2022/09/26 14:02:25;;;;;;;3.85;3.25;;;;;;;;;;5023703;28;20113;-72
2022/09/26 14:05:18;;;;;;;4.10;3.30;;;;;;;;;;5032177;28;20422;-67
2022/09/26 14:10:41;;;;;;;4.00;3.25;;;;;;;;;;5038686;28;20036;-66
2022/09/26 14:13:09;;;;;;;3.90;3.20;;;;;;;;;;5047286;28;20090;-70
2022/09/26 14:15:56;;;;;;;3.45;3.15;;;;;;;;;;5037540;28;20033;-68
2022/09/26 14:18:33;;;;;;;4.63;3.13;;;;;;;;;;5036581;28;20034;-70
2022/09/26 14:21:36;;;;;;;3.83;3.13;;;;;;;;;;5035783;28;20032;-68
2022/09/26 14:24:25;;;;;;;3.58;3.28;;;;;;;;;;5034380;28;20679;-69
2022/09/26 14:27:09;;;;;;;3.90;3.60;;;;;;;;;;5043238;28;20037;-71
2022/09/26 14:29:38;;;;;;;7.07;3.83;;;;;;;;;;5036913;28;20045;-70
2022/09/26 14:32:04;;;;;;;4.15;3.03;;;;;;;;;;5032624;28;20044;-66
2022/09/26 14:34:56;;;;;;;4.68;3.42;;;;;;;;;;5034072;28;20088;-69
2022/09/26 14:37:24;;;;;;;6.80;3.30;;;;;;;;;;5032952;28;20061;-69
2022/09/26 14:40:23;;;;;;;5.22;3.30;;;;;;;;;;5033857;28;20467;-69
2022/09/26 14:42:52;;;;;;;4.95;3.45;;;;;;;;;;5033913;28;20108;-69
2022/09/26 14:45:46;;;;;;;4.82;3.28;;;;;;;;;;5034107;28;20540;-67
2022/09/26 14:48:28;;;;;;;4.32;3.80;;;;;;;;;;5033574;28;20037;-66
2022/09/26 14:51:18;;;;;;;5.40;3.30;;;;;;;;;;5030985;28;20044;-68
2022/09/26 14:53:46;;;;;;;3.90;3.08;;;;;;;;;;5038173;28;20037;-69
2022/09/26 14:56:17;;;;;;;3.80;3.50;;;;;;;;;;5043906;28;20552;-65
2022/09/26 14:58:42;;;;;;;3.95;3.30;;;;;;;;;;5043228;28;20044;-65
2022/09/26 15:01:35;;;;;;;4.18;3.58;;;;;;;;;;5044737;28;20384;-70
2022/09/26 15:04:13;;;;;;;3.67;3.13;;;;;;;;;;5043242;28;20720;-65
2022/09/26 15:06:42;;;;;;;3.88;3.47;;;;;;;;;;5047912;28;20036;-65
2022/09/26 15:09:22;;;;;;;3.60;3.28;;;;;;;;;;5035945;28;20104;-67
2022/09/26 15:11:54;;;;;;;3.72;3.42;;;;;;;;;;5033551;28;20091;-70
2022/09/26 15:15:01;;;;;;;3.67;3.38;;;;;;;;;;5033331;28;20619;-67
2022/09/26 15:17:32;;;;;;;3.67;3.38;;;;;;;;;;5027663;28;20129;-69
2022/09/26 15:20:01;;;;;;;3.50;3.20;;;;;;;;;;5042796;28;20017;-70
2022/09/26 15:22:29;;;;;;;3.85;3.50;;;;;;;;;;5041549;28;20473;-68
2022/09/26 15:25:06;;;;;;;3.78;3.30;;;;;;;;;;5030931;28;20103;-69
2022/09/26 15:27:32;;;;;;;6.60;3.15;;;;;;;;;;5041237;28;20112;-70
2022/09/26 15:30:09;;;;;;;3.47;3.10;;;;;;;;;;5027394;28;20141;-69
2022/09/26 15:32:35;;;;;;;3.42;3.13;;;;;;;;;;5023237;28;20033;-66
2022/09/26 15:35:02;;;;;;;4.65;3.40;;;;;;;;;;5029805;28;20536;-69
2022/09/26 15:37:33;;;;;;;5.95;3.20;;;;;;;;;;5023953;28;20106;-64
2022/09/26 15:40:24;;;;;;;3.30;3.00;;;;;;;;;;5027764;28;20104;-67